Time;durP1;ratioP1;P1;durP2;ratioP2;P2;SDS_P1;SDS_P2;PMS_P1;PMS_P2;Temp;Humidity;BMP_temperature;BMP_pressure;BME280_temperature;BME280_humidity;BME280_pressure;Samples;Min_cycle;Max_cycle;Signal;HPM_P1;HPM_P2
2022/03/09 00:01:27;;;;;;;198.30;109.00;;;;;;;-0.69;90.91;99642.42;105114;1272;73277;-75
2022/03/09 00:03:54;;;;;;;200.60;110.30;;;;;;;-0.69;91.00;99641.54;105267;1270;62114;-75
2022/03/09 00:06:21;;;;;;;184.50;103.60;;;;;;;-0.67;90.94;99640.66;105244;1270;62120;-74
2022/03/09 00:08:47;;;;;;;194.80;106.70;;;;;;;-0.63;91.13;99641.83;105206;1270;62203;-75
2022/03/09 00:11:14;;;;;;;192.10;107.00;;;;;;;-0.58;91.19;99643.35;105250;1270;69189;-75
2022/03/09 00:13:40;;;;;;;193.00;106.50;;;;;;;-0.55;91.14;99643.31;105253;1270;73077;-75
2022/03/09 00:16:07;;;;;;;179.20;98.90;;;;;;;-0.51;91.15;99647.46;105002;1270;62157;-75
2022/03/09 00:18:33;;;;;;;173.10;98.90;;;;;;;-0.47;91.24;99645.48;105260;1270;62077;-74
2022/03/09 00:21:00;;;;;;;181.60;99.80;;;;;;;-0.44;91.25;99642.33;105252;1270;62095;-75
2022/03/09 00:23:26;;;;;;;168.60;99.10;;;;;;;-0.43;91.25;99639.69;105233;1270;62074;-74
2022/03/09 00:25:53;;;;;;;168.20;95.40;;;;;;;-0.42;91.30;99642.48;105239;1270;62215;-75
2022/03/09 00:28:19;;;;;;;162.50;92.00;;;;;;;-0.42;91.36;99642.11;105265;1270;62072;-74
2022/03/09 00:30:46;;;;;;;155.20;85.10;;;;;;;-0.41;91.37;99642.11;105271;1270;62077;-74
2022/03/09 00:33:12;;;;;;;152.90;89.90;;;;;;;-0.44;91.35;99645.46;105263;1270;62096;-74
2022/03/09 00:35:39;;;;;;;167.40;91.60;;;;;;;-0.47;91.43;99640.60;105233;1270;62099;-75
2022/03/09 00:38:06;;;;;;;157.70;85.50;;;;;;;-0.46;91.44;99636.58;105272;1270;73317;-75
2022/03/09 00:40:33;;;;;;;135.50;80.10;;;;;;;-0.44;91.56;99633.06;105230;1270;62041;-74
2022/03/09 00:42:59;;;;;;;133.70;77.20;;;;;;;-0.41;91.64;99633.91;105255;1270;62183;-74
2022/03/09 00:45:26;;;;;;;133.70;79.20;;;;;;;-0.38;91.65;99630.55;105249;1270;62182;-74
2022/03/09 00:47:52;;;;;;;132.20;76.70;;;;;;;-0.34;91.64;99631.54;105276;1270;69211;-75
2022/03/09 00:50:19;;;;;;;149.30;84.10;;;;;;;-0.34;91.56;99625.95;105230;1270;61978;-74
2022/03/09 00:52:47;;;;;;;140.60;78.10;;;;;;;-0.34;91.58;99624.91;104986;1270;329624;-75
2022/03/09 00:55:14;;;;;;;133.50;77.30;;;;;;;-0.34;91.51;99621.93;105127;1271;62019;-75
2022/03/09 00:57:41;;;;;;;160.70;91.90;;;;;;;-0.35;91.57;99625.10;105100;1270;73381;-74
2022/03/09 01:00:08;;;;;;;140.20;82.70;;;;;;;-0.38;91.58;99628.27;105258;1270;69193;-74
2022/03/09 01:02:43;;;;;;;129.80;76.80;;;;;;;-0.38;91.54;99626.89;105062;1270;73671;-74
2022/03/09 01:05:10;;;;;;;135.60;77.10;;;;;;;-0.38;91.76;99625.84;105217;1270;62057;-74
2022/03/09 01:07:37;;;;;;;128.60;74.80;;;;;;;-0.41;91.68;99618.54;105269;1270;62158;-74
2022/03/09 01:10:04;;;;;;;128.40;74.40;;;;;;;-0.40;91.83;99620.28;105243;1270;62185;-76
2022/03/09 01:12:31;;;;;;;127.00;73.40;;;;;;;-0.36;92.04;99619.88;104971;1270;69289;-75
2022/03/09 01:14:58;;;;;;;112.50;68.60;;;;;;;-0.31;92.08;99615.63;105330;1270;73255;-74
2022/03/09 01:17:26;;;;;;;105.80;66.60;;;;;;;-0.26;92.21;99611.38;105248;1270;62114;-75
2022/03/09 01:19:53;;;;;;;106.90;68.00;;;;;;;-0.22;92.08;99612.18;105232;1270;62070;-75
2022/03/09 01:22:20;;;;;;;116.60;68.10;;;;;;;-0.22;92.09;99609.90;105248;1270;77044;-75
2022/03/09 01:24:47;;;;;;;124.20;75.10;;;;;;;-0.21;92.09;99611.83;105266;1270;69536;-74
2022/03/09 01:27:13;;;;;;;127.70;74.90;;;;;;;-0.22;92.16;99606.77;105241;1270;62420;-74
2022/03/09 01:29:40;;;;;;;127.40;77.80;;;;;;;-0.22;92.18;99607.65;104994;1271;62249;-74
2022/03/09 01:32:07;;;;;;;124.50;76.60;;;;;;;-0.23;92.18;99607.30;105268;1270;61978;-74
2022/03/09 01:34:34;;;;;;;119.30;69.90;;;;;;;-0.23;92.33;99610.97;104979;1271;74145;-74
2022/03/09 01:37:01;;;;;;;125.70;74.50;;;;;;;-0.23;92.37;99606.80;105282;1270;68258;-74
2022/03/09 01:39:28;;;;;;;114.80;71.30;;;;;;;-0.24;92.43;99606.80;105195;1270;73232;-74
2022/03/09 01:41:55;;;;;;;113.80;70.00;;;;;;;-0.24;92.33;99609.24;105250;1270;62357;-74
2022/03/09 01:44:23;;;;;;;109.60;67.80;;;;;;;-0.21;92.61;99609.38;105039;1271;61995;-74
2022/03/09 01:46:52;;;;;;;116.50;67.90;;;;;;;-0.17;92.71;99607.91;104990;1273;77461;-74
2022/03/09 01:49:20;;;;;;;110.40;67.50;;;;;;;-0.13;92.54;99604.56;105299;1271;69582;-75
2022/03/09 01:51:49;;;;;;;111.00;68.90;;;;;;;-0.07;92.84;99598.17;106194;1271;70725;-75
2022/03/09 01:54:15;;;;;;;108.30;68.30;;;;;;;-0.02;92.78;99593.56;106591;1271;62089;-74
2022/03/09 01:56:42;;;;;;;123.50;74.10;;;;;;;0.00;92.78;99589.00;106891;1272;60755;-75
2022/03/09 01:59:11;;;;;;;114.20;71.80;;;;;;;0.03;92.84;99589.30;104990;1273;75485;-75
2022/03/09 02:01:38;;;;;;;116.10;69.80;;;;;;;0.05;92.79;99588.21;105058;1274;68171;-74
2022/03/09 02:04:05;;;;;;;115.60;70.30;;;;;;;0.05;92.62;99584.22;105086;1274;73452;-74
2022/03/09 02:06:33;;;;;;;125.70;73.40;;;;;;;0.04;92.71;99585.45;104932;1274;62121;-74
2022/03/09 02:11:47;;;;;;;126.50;75.90;;;;;;;-0.04;92.61;99584.34;105002;1274;76916;-75
2022/03/09 02:14:27;;;;;;;125.80;76.60;;;;;;;-0.08;92.54;99585.80;104972;1274;69288;-75
2022/03/09 02:16:55;;;;;;;117.60;73.50;;;;;;;-0.10;92.71;99584.44;104930;1274;73167;-75
2022/03/09 02:19:22;;;;;;;116.20;72.50;;;;;;;-0.10;92.81;99587.05;104991;1274;62196;-74
2022/03/09 02:21:52;;;;;;;118.80;71.40;;;;;;;-0.11;92.85;99589.49;104956;1273;62284;-75
2022/03/09 02:24:21;;;;;;;117.90;71.20;;;;;;;-0.08;92.91;99588.94;104874;1274;77389;-75
2022/03/09 02:26:49;;;;;;;121.40;71.50;;;;;;;-0.04;93.09;99585.90;105048;1274;70409;-75
2022/03/09 02:29:16;;;;;;;116.90;68.70;;;;;;;-0.02;92.99;99586.95;105007;1274;74209;-75
2022/03/09 02:31:43;;;;;;;113.20;72.10;;;;;;;-0.04;93.08;99584.86;104950;1274;62301;-74
2022/03/09 02:34:09;;;;;;;112.70;72.90;;;;;;;-0.04;93.08;99589.05;104985;1271;62199;-75
2022/03/09 02:36:35;;;;;;;102.30;62.50;;;;;;;-0.04;93.14;99587.13;105015;1271;62601;-75
2022/03/09 02:39:02;;;;;;;111.30;66.80;;;;;;;-0.07;93.12;99586.65;105020;1271;62077;-75
2022/03/09 02:41:33;;;;;;;103.10;64.40;;;;;;;-0.08;93.22;99588.94;104973;1271;62168;-75
2022/03/09 02:44:01;;;;;;;101.10;62.70;;;;;;;-0.08;93.28;99587.54;105231;1270;62107;-75
2022/03/09 02:46:28;;;;;;;100.10;63.10;;;;;;;-0.06;93.40;99587.52;105313;1270;62094;-74
2022/03/09 02:48:55;;;;;;;104.50;64.10;;;;;;;-0.05;93.42;99585.06;105234;1270;77212;-75
2022/03/09 02:51:22;;;;;;;92.80;59.10;;;;;;;-0.02;93.48;99585.19;105311;1270;70257;-76
2022/03/09 02:53:48;;;;;;;98.40;59.60;;;;;;;-0.01;93.40;99578.53;105232;1269;62181;-76
2022/03/09 02:56:16;;;;;;;96.60;60.60;;;;;;;-0.01;93.44;99572.08;105285;1270;62132;-75
2022/03/09 02:58:43;;;;;;;98.30;61.00;;;;;;;0.03;93.48;99573.94;105066;1271;62184;-75
2022/03/09 03:01:13;;;;;;;97.20;61.60;;;;;;;-0.00;93.20;99573.45;104999;1273;77070;-75
2022/03/09 03:03:43;;;;;;;89.50;56.80;;;;;;;-0.02;93.33;99573.83;105244;1270;69149;-75
2022/03/09 03:06:11;;;;;;;96.80;58.80;;;;;;;-0.06;93.36;99569.87;105218;1270;71242;-75
2022/03/09 03:08:39;;;;;;;96.00;60.30;;;;;;;-0.07;93.34;99570.77;105333;1270;62121;-75
2022/03/09 03:11:07;;;;;;;95.20;60.50;;;;;;;-0.07;93.33;99571.98;105257;1270;63603;-74
2022/03/09 03:13:34;;;;;;;99.20;60.70;;;;;;;-0.06;93.40;99573.35;105302;1270;76003;-75
2022/03/09 03:16:01;;;;;;;91.80;58.40;;;;;;;-0.03;93.36;99572.45;105276;1270;69208;-74
2022/03/09 03:18:27;;;;;;;95.60;58.80;;;;;;;-0.01;93.40;99569.98;105200;1269;62301;-75
2022/03/09 03:20:54;;;;;;;96.80;60.60;;;;;;;0.04;93.44;99569.20;105025;1271;62087;-75
2022/03/09 03:23:22;;;;;;;97.10;61.10;;;;;;;0.09;93.37;99574.19;105263;1270;62157;-75
2022/03/09 03:25:53;;;;;;;97.90;59.90;;;;;;;0.10;93.34;99568.94;105250;1270;76099;-74
2022/03/09 03:28:21;;;;;;;100.40;61.80;;;;;;;0.09;93.32;99574.90;105272;1270;67573;-75
2022/03/09 03:30:48;;;;;;;106.40;67.40;;;;;;;0.06;93.25;99574.23;105281;1270;73311;-75
2022/03/09 03:33:16;;;;;;;107.20;67.30;;;;;;;0.07;93.27;99574.39;105313;1270;62527;-75
2022/03/09 03:35:43;;;;;;;101.60;64.70;;;;;;;0.04;93.25;99571.83;105294;1270;62222;-75
2022/03/09 03:38:11;;;;;;;100.60;66.20;;;;;;;-0.01;93.30;99573.30;105102;1271;75934;-75
2022/03/09 03:40:37;;;;;;;110.90;65.70;;;;;;;-0.05;93.31;99576.67;105330;1270;70183;-75
2022/03/09 03:43:04;;;;;;;122.20;70.90;;;;;;;-0.06;93.40;99579.65;105388;1270;74889;-75
2022/03/09 03:45:31;;;;;;;104.60;62.80;;;;;;;-0.06;93.52;99580.87;105577;1269;62114;-75
2022/03/09 03:47:58;;;;;;;95.80;62.10;;;;;;;-0.05;93.62;99579.65;105697;1270;62151;-75
2022/03/09 03:50:25;;;;;;;103.30;61.90;;;;;;;-0.04;93.80;99579.61;105719;1270;75976;-75
2022/03/09 03:52:52;;;;;;;99.60;61.80;;;;;;;-0.01;93.89;99582.39;106025;1270;69209;-75
2022/03/09 03:55:19;;;;;;;104.70;62.80;;;;;;;0.01;94.09;99587.94;106462;1270;73439;-76
2022/03/09 03:57:46;;;;;;;101.90;63.20;;;;;;;0.03;94.05;99587.73;108345;1270;62048;-76
2022/03/09 04:00:13;;;;;;;107.20;65.70;;;;;;;0.02;94.05;99583.89;108373;1270;59831;-76
2022/03/09 04:02:39;;;;;;;110.80;67.50;;;;;;;0.04;94.28;99583.52;108267;1270;75917;-76
2022/03/09 04:05:06;;;;;;;114.10;70.30;;;;;;;0.06;94.30;99589.95;108252;1270;69299;-76
2022/03/09 04:07:33;;;;;;;114.70;69.90;;;;;;;0.05;94.32;99591.19;107308;1270;73345;-76
2022/03/09 04:10:01;;;;;;;112.00;70.00;;;;;;;0.06;94.32;99591.54;106511;1271;62262;-75
2022/03/09 04:12:27;;;;;;;116.80;68.50;;;;;;;0.04;94.29;99591.38;105151;1271;61961;-74
2022/03/09 04:14:54;;;;;;;112.00;67.10;;;;;;;0.03;94.34;99590.53;104961;1271;62133;-74
2022/03/09 04:17:20;;;;;;;104.30;64.60;;;;;;;0.03;94.36;99587.03;105392;1270;62136;-73
2022/03/09 04:19:47;;;;;;;101.90;61.50;;;;;;;0.03;94.37;99585.63;105331;1271;74335;-73
2022/03/09 04:22:13;;;;;;;103.00;65.00;;;;;;;0.05;94.75;99585.42;105401;1270;62004;-74
2022/03/09 04:24:40;;;;;;;101.10;65.10;;;;;;;0.09;94.72;99585.55;105283;1269;62110;-74
2022/03/09 04:27:06;;;;;;;110.80;67.90;;;;;;;0.11;94.73;99583.42;105263;1270;62062;-74
2022/03/09 04:29:32;;;;;;;105.50;66.40;;;;;;;0.13;94.82;99582.70;105230;1271;62137;-74
2022/03/09 04:31:59;;;;;;;106.20;66.60;;;;;;;0.13;94.67;99580.78;105223;1271;62171;-74
2022/03/09 04:34:25;;;;;;;111.60;69.00;;;;;;;0.10;94.71;99579.42;105255;1271;62072;-75
2022/03/09 04:36:52;;;;;;;111.20;67.90;;;;;;;0.08;94.74;99589.58;105346;1270;62063;-75
2022/03/09 04:39:18;;;;;;;114.70;75.70;;;;;;;0.07;94.78;99597.98;105272;1270;62088;-75
2022/03/09 04:41:45;;;;;;;115.90;73.90;;;;;;;0.04;94.82;99604.66;105278;1270;62296;-75
2022/03/09 04:44:11;;;;;;;111.50;68.40;;;;;;;0.04;94.94;99604.84;105269;1271;62209;-74
2022/03/09 04:46:38;;;;;;;104.30;65.50;;;;;;;0.06;94.78;99604.81;105267;1271;62168;-74
2022/03/09 04:49:04;;;;;;;104.10;63.90;;;;;;;0.06;94.79;99609.36;105257;1271;61951;-75
2022/03/09 04:51:31;;;;;;;106.00;66.50;;;;;;;0.06;94.93;99610.22;105225;1271;62126;-76
2022/03/09 04:53:57;;;;;;;96.90;62.00;;;;;;;0.12;95.08;99608.92;105088;1274;62175;-75
2022/03/09 04:56:24;;;;;;;105.70;65.40;;;;;;;0.15;95.06;99609.56;105173;1271;62187;-75
2022/03/09 04:58:50;;;;;;;95.20;63.80;;;;;;;0.18;95.02;99615.98;105218;1271;62094;-74
2022/03/09 05:01:17;;;;;;;102.10;67.10;;;;;;;0.17;94.85;99612.50;105266;1271;62063;-74
2022/03/09 05:03:43;;;;;;;106.40;67.00;;;;;;;0.15;94.96;99612.88;105270;1271;62108;-75
2022/03/09 05:06:10;;;;;;;112.40;70.70;;;;;;;0.16;95.02;99610.42;103750;1270;1014803;-74
2022/03/09 05:08:37;;;;;;;101.00;63.30;;;;;;;0.16;95.02;99612.54;105204;1271;62094;-74
2022/03/09 05:11:03;;;;;;;103.30;65.70;;;;;;;0.13;94.98;99613.08;105194;1271;62205;-74
2022/03/09 05:13:30;;;;;;;104.90;65.70;;;;;;;0.11;94.99;99609.98;105219;1271;62201;-74
2022/03/09 05:15:56;;;;;;;99.00;63.40;;;;;;;0.11;95.11;99613.48;105052;1273;62089;-74
2022/03/09 05:18:22;;;;;;;101.90;64.10;;;;;;;0.12;95.09;99607.86;105106;1271;62066;-74
2022/03/09 05:20:49;;;;;;;107.40;65.20;;;;;;;0.13;95.16;99616.23;105227;1269;62710;-75
2022/03/09 05:23:15;;;;;;;102.50;65.40;;;;;;;0.17;95.18;99619.50;105218;1271;62237;-74
2022/03/09 05:25:42;;;;;;;99.90;65.00;;;;;;;0.19;95.16;99609.50;105249;1271;62072;-75
2022/03/09 05:28:08;;;;;;;103.50;65.80;;;;;;;0.21;95.27;99610.18;105179;1270;62184;-77
2022/03/09 05:30:35;;;;;;;104.70;68.70;;;;;;;0.21;95.21;99611.56;105220;1270;62133;-74
2022/03/09 05:33:01;;;;;;;100.60;64.00;;;;;;;0.23;95.23;99612.23;105196;1271;62084;-75
2022/03/09 05:35:28;;;;;;;115.00;67.10;;;;;;;0.20;95.17;99613.16;105209;1271;62164;-75
2022/03/09 05:37:54;;;;;;;95.80;65.10;;;;;;;0.20;95.27;99617.70;105184;1271;62279;-74
2022/03/09 05:40:21;;;;;;;96.80;61.20;;;;;;;0.21;95.36;99616.30;105214;1270;62123;-74
2022/03/09 05:42:47;;;;;;;93.80;61.20;;;;;;;0.22;95.43;99618.20;105201;1270;62167;-75
2022/03/09 05:45:14;;;;;;;87.00;56.60;;;;;;;0.23;95.32;99622.55;105170;1271;62087;-74
2022/03/09 05:47:40;;;;;;;98.10;62.00;;;;;;;0.23;95.52;99621.33;105226;1270;62267;-73
2022/03/09 05:50:08;;;;;;;97.30;59.60;;;;;;;0.25;95.60;99619.04;105212;1271;62063;-75
2022/03/09 05:52:35;;;;;;;103.50;62.70;;;;;;;0.27;95.61;99619.19;105195;1270;76096;-75
2022/03/09 05:55:01;;;;;;;98.20;60.50;;;;;;;0.30;95.69;99618.08;105208;1271;69379;-75
2022/03/09 05:57:28;;;;;;;97.90;61.60;;;;;;;0.32;95.61;99615.08;105170;1270;74414;-76
2022/03/09 05:59:54;;;;;;;94.90;58.90;;;;;;;0.32;95.62;99613.70;105023;1272;62160;-76
2022/03/09 06:02:21;;;;;;;99.10;59.70;;;;;;;0.31;95.55;99617.36;105229;1270;62484;-75
2022/03/09 06:04:47;;;;;;;91.80;57.10;;;;;;;0.31;95.57;99617.36;105217;1271;62250;-75
2022/03/09 06:07:14;;;;;;;95.00;59.90;;;;;;;0.34;95.50;99624.48;105249;1271;62111;-75
2022/03/09 06:09:41;;;;;;;88.10;57.80;;;;;;;0.40;95.60;99625.27;105261;1271;72992;-75
2022/03/09 06:12:08;;;;;;;84.60;55.90;;;;;;;0.46;95.61;99623.61;105173;1271;62108;-75
2022/03/09 06:14:34;;;;;;;90.40;57.50;;;;;;;0.52;95.49;99622.79;105235;1271;61969;-75
2022/03/09 06:17:01;;;;;;;87.70;58.90;;;;;;;0.62;95.51;99622.82;105377;1271;62087;-74
2022/03/09 06:19:27;;;;;;;98.80;60.60;;;;;;;0.72;95.45;99623.02;105593;1271;62026;-76
2022/03/09 06:21:54;;;;;;;91.80;59.00;;;;;;;0.76;95.20;99625.56;105456;1271;61996;-75
2022/03/09 06:24:20;;;;;;;89.20;59.60;;;;;;;0.77;95.13;99629.56;105201;1271;62057;-75
2022/03/09 06:26:46;;;;;;;87.20;57.50;;;;;;;0.77;95.05;99627.28;105181;1271;61938;-75
2022/03/09 06:29:13;;;;;;;89.40;55.70;;;;;;;0.78;95.04;99630.07;105237;1271;62152;-75
2022/03/09 06:31:42;;;;;;;89.20;56.80;;;;;;;0.76;94.90;99632.55;105230;1271;62178;-75
2022/03/09 06:34:09;;;;;;;79.30;52.60;;;;;;;0.79;94.88;99629.71;105010;1272;72078;-75
2022/03/09 06:36:36;;;;;;;75.60;52.00;;;;;;;0.81;94.75;99632.45;105133;1271;62160;-75
2022/03/09 06:39:03;;;;;;;81.60;53.30;;;;;;;0.85;94.79;99631.88;104997;1271;62083;-75
2022/03/09 06:41:30;;;;;;;80.80;55.70;;;;;;;0.89;94.65;99632.16;105227;1271;76915;-75
2022/03/09 06:43:56;;;;;;;77.10;51.70;;;;;;;0.92;94.48;99629.13;105236;1270;62094;-75
2022/03/09 06:46:23;;;;;;;77.10;52.70;;;;;;;0.94;94.36;99626.13;105189;1271;73440;-75
2022/03/09 06:48:50;;;;;;;82.80;51.50;;;;;;;0.98;94.44;99624.48;105224;1270;62044;-75
2022/03/09 06:51:16;;;;;;;74.50;51.50;;;;;;;1.02;94.29;99624.06;105213;1270;62047;-75
2022/03/09 06:53:44;;;;;;;81.60;51.40;;;;;;;1.04;94.10;99625.08;105225;1270;62099;-75
2022/03/09 06:56:11;;;;;;;78.90;51.10;;;;;;;1.04;94.05;99623.65;105176;1270;69222;-75
2022/03/09 06:58:37;;;;;;;77.50;49.90;;;;;;;1.06;94.03;99623.61;105184;1270;73453;-75
2022/03/09 07:01:04;;;;;;;71.80;46.60;;;;;;;1.11;93.90;99626.69;105211;1270;62107;-76
2022/03/09 07:03:31;;;;;;;71.10;45.90;;;;;;;1.15;93.69;99623.27;105218;1271;62608;-75
2022/03/09 07:05:57;;;;;;;74.40;47.60;;;;;;;1.19;93.67;99622.69;105194;1270;62079;-75
2022/03/09 07:08:23;;;;;;;76.20;50.90;;;;;;;1.25;93.49;99623.45;105155;1270;62138;-75
2022/03/09 07:10:50;;;;;;;71.70;47.20;;;;;;;1.27;93.38;99626.04;105186;1270;62195;-75
2022/03/09 07:13:17;;;;;;;81.50;51.00;;;;;;;1.27;93.12;99629.38;104997;1272;62186;-75
2022/03/09 07:15:43;;;;;;;81.70;53.00;;;;;;;1.26;93.03;99630.09;105211;1270;61977;-75
2022/03/09 07:18:09;;;;;;;78.30;51.90;;;;;;;1.29;93.07;99632.66;104964;1271;62194;-75
2022/03/09 07:20:37;;;;;;;82.80;50.80;;;;;;;1.31;92.88;99628.58;105159;1271;62273;-75
2022/03/09 07:23:03;;;;;;;81.80;52.90;;;;;;;1.33;92.80;99627.69;105197;1271;74708;-75
2022/03/09 07:25:30;;;;;;;73.50;49.20;;;;;;;1.36;92.60;99628.50;105207;1270;62088;-75
2022/03/09 07:27:56;;;;;;;71.70;48.30;;;;;;;1.40;92.50;99621.27;105161;1270;62085;-75
2022/03/09 07:30:23;;;;;;;73.30;46.80;;;;;;;1.45;92.35;99615.70;105228;1270;62072;-75
2022/03/09 07:32:49;;;;;;;78.30;50.80;;;;;;;1.59;92.27;99615.79;105219;1270;62203;-75
2022/03/09 07:35:16;;;;;;;76.70;49.90;;;;;;;1.73;92.09;99610.75;105239;1270;62172;-75
2022/03/09 07:37:43;;;;;;;77.00;50.10;;;;;;;1.86;91.87;99604.19;105242;1269;62176;-75
2022/03/09 07:40:10;;;;;;;72.50;51.00;;;;;;;1.96;91.58;99605.54;105202;1270;62062;-75
2022/03/09 07:42:36;;;;;;;72.00;48.60;;;;;;;2.06;91.26;99608.29;105181;1270;76615;-75
2022/03/09 07:45:08;;;;;;;65.20;48.30;;;;;;;2.10;90.80;99615.22;105177;1270;69188;-75
2022/03/09 07:47:36;;;;;;;66.60;47.20;;;;;;;2.12;90.73;99619.70;105032;1271;73543;-74
2022/03/09 07:50:04;;;;;;;64.40;45.90;;;;;;;2.18;90.53;99620.30;105249;1270;61968;-75
2022/03/09 07:52:31;;;;;;;70.10;46.60;;;;;;;2.25;90.30;99622.23;104895;1271;62168;-74
2022/03/09 07:54:57;;;;;;;67.30;46.20;;;;;;;2.31;90.07;99624.38;105215;1270;77095;-73
2022/03/09 07:57:24;;;;;;;71.60;48.60;;;;;;;2.36;89.94;99624.25;105240;1270;62351;-75
2022/03/09 07:59:50;;;;;;;66.70;47.40;;;;;;;2.44;89.85;99626.01;105199;1270;62131;-75
2022/03/09 08:02:16;;;;;;;69.30;46.10;;;;;;;2.50;89.57;99628.15;105228;1270;61956;-75
2022/03/09 08:04:43;;;;;;;72.20;47.50;;;;;;;2.52;89.14;99635.10;104982;1271;62293;-75
2022/03/09 08:07:09;;;;;;;73.90;48.60;;;;;;;2.55;89.18;99636.09;105225;1270;62165;-74
2022/03/09 08:09:36;;;;;;;71.10;48.20;;;;;;;2.61;88.96;99636.83;105206;1270;62916;-74
2022/03/09 08:12:03;;;;;;;69.80;46.90;;;;;;;2.66;88.63;99630.72;105191;1270;62165;-75
2022/03/09 08:14:29;;;;;;;69.30;47.70;;;;;;;2.78;88.51;99626.56;105198;1270;62132;-75
2022/03/09 08:16:55;;;;;;;65.60;47.70;;;;;;;2.95;88.39;99622.98;104987;1271;62005;-75
2022/03/09 08:19:22;;;;;;;69.70;47.40;;;;;;;3.12;88.13;99630.27;105221;1270;62204;-75
2022/03/09 08:21:48;;;;;;;67.80;47.40;;;;;;;3.30;87.75;99628.02;105211;1270;62176;-75
2022/03/09 08:24:15;;;;;;;69.50;48.00;;;;;;;3.47;87.44;99623.88;104952;1270;62224;-75
2022/03/09 08:26:41;;;;;;;65.70;48.30;;;;;;;3.61;87.08;99623.10;105211;1270;62069;-75
2022/03/09 08:29:08;;;;;;;71.60;49.30;;;;;;;3.76;86.78;99625.86;105232;1270;62077;-75
2022/03/09 08:31:34;;;;;;;65.90;45.60;;;;;;;3.90;86.42;99627.19;105224;1270;62184;-75
2022/03/09 08:34:01;;;;;;;62.30;46.10;;;;;;;4.01;85.73;99627.05;105210;1270;62059;-75
2022/03/09 08:36:27;;;;;;;61.40;43.60;;;;;;;4.07;84.89;99626.70;105176;1270;62159;-75
2022/03/09 08:38:55;;;;;;;63.80;43.80;;;;;;;4.12;84.73;99627.75;105183;1270;62183;-75
2022/03/09 08:41:26;;;;;;;61.80;45.40;;;;;;;4.18;84.36;99626.02;105228;1270;62586;-75
2022/03/09 08:43:52;;;;;;;61.60;44.60;;;;;;;4.30;84.36;99624.23;105238;1270;75897;-75
2022/03/09 08:46:19;;;;;;;62.80;44.30;;;;;;;4.40;83.89;99618.99;104993;1271;70327;-74
2022/03/09 08:48:46;;;;;;;67.50;47.50;;;;;;;4.50;83.42;99617.95;105226;1270;72804;-76
2022/03/09 08:51:13;;;;;;;65.60;46.10;;;;;;;4.61;83.31;99616.04;105212;1270;62165;-76
2022/03/09 08:53:40;;;;;;;68.20;47.70;;;;;;;4.74;83.25;99613.49;105221;1270;62158;-76
2022/03/09 08:56:07;;;;;;;63.30;46.50;;;;;;;4.84;81.57;99613.50;105222;1270;77741;-75
2022/03/09 08:58:37;;;;;;;65.70;45.60;;;;;;;4.74;80.45;99616.67;105168;1270;69840;-76
2022/03/09 09:01:04;;;;;;;61.30;44.50;;;;;;;4.75;81.45;99611.16;105222;1270;73130;-76
2022/03/09 09:03:31;;;;;;;56.80;40.60;;;;;;;4.85;80.82;99606.61;105215;1270;62165;-75
2022/03/09 09:05:58;;;;;;;65.10;46.80;;;;;;;4.87;79.71;99609.71;105292;1270;61927;-76
2022/03/09 09:08:24;;;;;;;68.60;47.30;;;;;;;4.84;78.90;99609.46;105262;1270;75904;-76
2022/03/09 09:10:51;;;;;;;66.30;47.20;;;;;;;4.84;79.90;99606.98;105252;1270;62127;-75
2022/03/09 09:13:17;;;;;;;65.30;47.80;;;;;;;4.99;79.79;99607.16;105518;1270;62066;-76
2022/03/09 09:15:44;;;;;;;65.40;46.80;;;;;;;5.08;79.33;99601.23;105216;1272;62213;-79
2022/03/09 09:18:10;;;;;;;61.90;44.50;;;;;;;5.23;79.85;99605.63;105733;1270;62083;-79
2022/03/09 09:20:37;;;;;;;64.30;47.00;;;;;;;5.41;79.67;99603.41;105818;1270;77606;-80
2022/03/09 09:23:05;;;;;;;61.50;46.10;;;;;;;5.61;79.60;99595.81;105814;1270;62101;-79
2022/03/09 09:25:31;;;;;;;63.30;46.80;;;;;;;5.77;78.61;99589.40;106003;1270;72560;-79
2022/03/09 09:27:58;;;;;;;64.70;49.80;;;;;;;5.86;78.18;99589.08;105942;1270;62027;-81
2022/03/09 09:30:35;;;;;;;70.60;50.00;;;;;;;5.90;77.81;99583.96;105837;1270;62052;-83
2022/03/09 09:33:02;;;;;;;66.80;50.30;;;;;;;5.87;75.48;99587.61;105410;1270;75735;-78
2022/03/09 09:35:29;;;;;;;65.80;51.90;;;;;;;5.74;75.96;99593.77;105876;1270;67287;-79
2022/03/09 09:37:56;;;;;;;63.80;48.50;;;;;;;5.77;77.00;99592.41;105846;1270;74148;-79
2022/03/09 09:40:24;;;;;;;68.30;50.40;;;;;;;5.96;76.64;99591.00;105912;1270;62066;-79
2022/03/09 09:42:50;;;;;;;63.90;48.50;;;;;;;6.10;76.84;99587.81;106200;1269;62095;-79
2022/03/09 09:45:17;;;;;;;65.40;49.90;;;;;;;6.30;76.98;99584.55;105579;1270;76954;-78
2022/03/09 09:47:45;;;;;;;66.90;51.00;;;;;;;6.51;76.92;99581.59;105560;1270;62072;-81
2022/03/09 09:50:13;;;;;;;65.30;47.30;;;;;;;6.64;76.20;99577.71;105715;1270;73664;-78
2022/03/09 09:52:40;;;;;;;67.10;49.80;;;;;;;6.69;75.41;99576.77;105681;1270;62114;-80
2022/03/09 09:55:08;;;;;;;64.90;47.80;;;;;;;6.78;75.74;99579.23;105765;1270;62087;-83
2022/03/09 09:57:35;;;;;;;59.70;46.10;;;;;;;6.92;75.10;99574.23;105647;1269;76835;-74
2022/03/09 10:00:04;;;;;;;59.50;45.30;;;;;;;6.93;73.79;99573.48;105711;1270;70391;-85
2022/03/09 10:02:31;;;;;;;62.90;47.90;;;;;;;6.88;73.80;99567.35;105621;1270;74428;-88
2022/03/09 10:04:57;;;;;;;64.90;47.60;;;;;;;6.93;74.02;99566.08;105883;1271;62206;-86
2022/03/09 10:07:24;;;;;;;62.40;47.80;;;;;;;7.05;74.03;99562.36;105624;1270;62067;-72
2022/03/09 10:09:50;;;;;;;64.50;46.80;;;;;;;7.12;72.83;99561.53;105292;1270;62057;-72
2022/03/09 10:12:26;;;;;;;67.30;48.70;;;;;;;7.13;73.30;99557.07;105308;1270;62062;-71
2022/03/09 10:14:54;;;;;;;61.10;46.20;;;;;;;7.21;73.08;99555.11;105329;1270;73236;-73
2022/03/09 10:17:28;;;;;;;62.60;44.60;;;;;;;7.29;73.11;99555.85;105289;1270;62089;-73
2022/03/09 10:19:58;;;;;;;64.00;46.10;;;;;;;7.29;72.91;99552.48;105579;1270;62114;-74
2022/03/09 10:22:36;;;;;;;63.90;47.00;;;;;;;7.31;72.64;99554.16;105504;1269;76946;-74
2022/03/09 10:25:08;;;;;;;65.70;47.10;;;;;;;7.38;72.34;99547.45;105408;1270;69128;-74
2022/03/09 10:27:43;;;;;;;56.20;41.60;;;;;;;7.51;72.29;99544.96;105342;1270;73295;-74
2022/03/09 10:30:13;;;;;;;50.40;38.60;;;;;;;7.64;71.39;99541.32;105352;1270;62001;-75
2022/03/09 10:32:57;;;;;;;54.60;41.10;;;;;;;7.72;71.23;99537.27;105428;1270;62178;-72
2022/03/09 10:35:30;;;;;;;52.70;38.50;;;;;;;7.82;71.09;99538.54;105521;1270;76721;-73
2022/03/09 10:38:02;;;;;;;39.90;30.20;;;;;;;7.95;69.87;99533.15;105376;1270;69425;-72
2022/03/09 10:40:30;;;;;;;39.00;31.00;;;;;;;7.94;68.35;99523.67;105620;1270;73334;-75
2022/03/09 10:43:14;;;;;;;42.60;34.10;;;;;;;7.96;67.53;99523.36;105623;1268;61927;-73
2022/03/09 10:45:57;;;;;;;41.60;30.00;;;;;;;8.00;66.39;99516.11;106411;1268;62187;-74
2022/03/09 10:48:26;;;;;;;40.40;30.10;;;;;;;7.98;65.53;99518.15;106670;1268;76878;-74
2022/03/09 10:50:54;;;;;;;38.90;29.00;;;;;;;7.95;65.86;99515.13;106100;1268;69346;-73
2022/03/09 10:53:21;;;;;;;40.60;30.60;;;;;;;8.02;65.79;99514.27;105929;1268;74539;-73
2022/03/09 10:55:49;;;;;;;40.20;30.80;;;;;;;8.06;65.67;99516.56;105989;1268;62063;-73
2022/03/09 10:58:21;;;;;;;40.30;29.70;;;;;;;8.16;65.81;99513.94;106012;1268;62138;-74
2022/03/09 11:00:52;;;;;;;40.20;27.90;;;;;;;8.26;64.29;99514.36;106589;1267;75865;-71
2022/03/09 11:03:27;;;;;;;37.50;28.50;;;;;;;8.25;62.59;99521.45;108797;1268;69214;-72
2022/03/09 11:05:55;;;;;;;39.10;29.00;;;;;;;8.21;62.95;99525.70;108702;1267;71302;-74
2022/03/09 11:08:26;;;;;;;37.10;26.40;;;;;;;8.22;62.89;99525.13;108726;1267;59678;-73
2022/03/09 11:11:00;;;;;;;38.90;27.50;;;;;;;8.19;60.85;99526.52;108710;1267;61130;-72
2022/03/09 11:13:29;;;;;;;35.80;25.90;;;;;;;8.14;59.51;99533.86;106715;1270;75962;-74
2022/03/09 11:15:55;;;;;;;38.80;25.40;;;;;;;8.13;59.93;99535.31;105441;1268;69243;-75